<?xml version="1.0" encoding="UTF-8" standalone="no" ?>
<gpx xmlns="http://www.topografix.com/GPX/1/1" xmlns:xsi="http://www.w3.org/2001/XMLSchema-instance" xsi:schemaLocation="http://www.topografix.com/GPX/1/1 http://www.topografix.com/GPX/1/1/gpx.xsd" version="1.1" creator="VisuGPX - https://www.visugpx.com">
  <metadata>
    <name>reconnaissance rando les rochers saussois</name>
    <desc><![CDATA[[b][i][url][img][/img][/url][/i][/b]]]></desc>
  </metadata>
  <trk>
    <name><![CDATA[2014-07-27 Rochers saussois]]></name>
    <trkseg>
      <trkpt lat="47.56613" lon="3.64736">
        <ele>138.15</ele>
        <time>2014-07-27T06:56:07Z</time>
      </trkpt>
      <trkpt lat="47.56613" lon="3.64736">
        <ele>138.15</ele>
        <time>2014-07-27T06:56:08Z</time>
      </trkpt>
      <trkpt lat="47.56614" lon="3.64735">
        <ele>138.18</ele>
        <time>2014-07-27T06:56:16Z</time>
      </trkpt>
      <trkpt lat="47.56627" lon="3.64751">
        <ele>146.22</ele>
        <time>2014-07-27T06:57:28Z</time>
      </trkpt>
      <trkpt lat="47.56626" lon="3.64762">
        <ele>147.03</ele>
        <time>2014-07-27T06:57:38Z</time>
      </trkpt>
      <trkpt lat="47.56624" lon="3.6477">
        <ele>148.23</ele>
        <time>2014-07-27T06:57:51Z</time>
      </trkpt>
      <trkpt lat="47.56621" lon="3.64782">
        <ele>149.49</ele>
        <time>2014-07-27T06:58:24Z</time>
      </trkpt>
      <trkpt lat="47.56621" lon="3.64787">
        <ele>149.57</ele>
        <time>2014-07-27T06:58:51Z</time>
      </trkpt>
      <trkpt lat="47.56634" lon="3.64761">
        <ele>165.83</ele>
        <time>2014-07-27T07:07:25Z</time>
      </trkpt>
      <trkpt lat="47.56634" lon="3.64774">
        <ele>165.69</ele>
        <time>2014-07-27T07:07:38Z</time>
      </trkpt>
      <trkpt lat="47.56631" lon="3.64779">
        <ele>165.89</ele>
        <time>2014-07-27T07:07:53Z</time>
      </trkpt>
      <trkpt lat="47.56632" lon="3.64781">
        <ele>166.23</ele>
        <time>2014-07-27T07:08:16Z</time>
      </trkpt>
      <trkpt lat="47.56633" lon="3.64785">
        <ele>166.51</ele>
        <time>2014-07-27T07:08:34Z</time>
      </trkpt>
      <trkpt lat="47.56633" lon="3.64785">
        <ele>166.43</ele>
        <time>2014-07-27T07:08:56Z</time>
      </trkpt>
      <trkpt lat="47.56632" lon="3.64792">
        <ele>166.52</ele>
        <time>2014-07-27T07:09:26Z</time>
      </trkpt>
      <trkpt lat="47.56626" lon="3.64822">
        <ele>167.36</ele>
        <time>2014-07-27T07:09:46Z</time>
      </trkpt>
      <trkpt lat="47.5663" lon="3.64846">
        <ele>167.7</ele>
        <time>2014-07-27T07:10:02Z</time>
      </trkpt>
      <trkpt lat="47.5664" lon="3.64863">
        <ele>167.93</ele>
        <time>2014-07-27T07:10:18Z</time>
      </trkpt>
      <trkpt lat="47.5664" lon="3.64871">
        <ele>168.27</ele>
        <time>2014-07-27T07:10:28Z</time>
      </trkpt>
      <trkpt lat="47.56633" lon="3.64897">
        <ele>168.57</ele>
        <time>2014-07-27T07:10:43Z</time>
      </trkpt>
      <trkpt lat="47.56626" lon="3.649">
        <ele>168.99</ele>
        <time>2014-07-27T07:11:00Z</time>
      </trkpt>
      <trkpt lat="47.56625" lon="3.649">
        <ele>168.9</ele>
        <time>2014-07-27T07:11:21Z</time>
      </trkpt>
      <trkpt lat="47.56626" lon="3.64942">
        <ele>169.32</ele>
        <time>2014-07-27T07:12:55Z</time>
      </trkpt>
      <trkpt lat="47.5662" lon="3.64961">
        <ele>169.61</ele>
        <time>2014-07-27T07:13:08Z</time>
      </trkpt>
      <trkpt lat="47.56619" lon="3.64964">
        <ele>169.59</ele>
        <time>2014-07-27T07:13:10Z</time>
      </trkpt>
      <trkpt lat="47.56606" lon="3.64966">
        <ele>169.42</ele>
        <time>2014-07-27T07:13:25Z</time>
      </trkpt>
      <trkpt lat="47.56606" lon="3.64961">
        <ele>169.79</ele>
        <time>2014-07-27T07:13:44Z</time>
      </trkpt>
      <trkpt lat="47.56611" lon="3.64964">
        <ele>169.56</ele>
        <time>2014-07-27T07:13:59Z</time>
      </trkpt>
      <trkpt lat="47.56615" lon="3.64963">
        <ele>169.31</ele>
        <time>2014-07-27T07:14:18Z</time>
      </trkpt>
      <trkpt lat="47.56629" lon="3.6496">
        <ele>169.36</ele>
        <time>2014-07-27T07:14:38Z</time>
      </trkpt>
      <trkpt lat="47.5663" lon="3.64961">
        <ele>169.41</ele>
        <time>2014-07-27T07:14:40Z</time>
      </trkpt>
      <trkpt lat="47.56633" lon="3.64965">
        <ele>169.39</ele>
        <time>2014-07-27T07:14:45Z</time>
      </trkpt>
      <trkpt lat="47.56635" lon="3.64977">
        <ele>169.4</ele>
        <time>2014-07-27T07:14:52Z</time>
      </trkpt>
      <trkpt lat="47.56632" lon="3.64998">
        <ele>168.98</ele>
        <time>2014-07-27T07:15:07Z</time>
      </trkpt>
      <trkpt lat="47.56631" lon="3.64999">
        <ele>168.57</ele>
        <time>2014-07-27T07:15:33Z</time>
      </trkpt>
      <trkpt lat="47.56621" lon="3.65071">
        <ele>167.75</ele>
        <time>2014-07-27T07:17:43Z</time>
      </trkpt>
      <trkpt lat="47.56616" lon="3.65092">
        <ele>167.29</ele>
        <time>2014-07-27T07:17:56Z</time>
      </trkpt>
      <trkpt lat="47.56611" lon="3.65122">
        <ele>167.25</ele>
        <time>2014-07-27T07:18:14Z</time>
      </trkpt>
      <trkpt lat="47.56608" lon="3.65143">
        <ele>167.24</ele>
        <time>2014-07-27T07:18:29Z</time>
      </trkpt>
      <trkpt lat="47.56602" lon="3.65165">
        <ele>167.36</ele>
        <time>2014-07-27T07:18:44Z</time>
      </trkpt>
      <trkpt lat="47.56598" lon="3.65176">
        <ele>167.49</ele>
        <time>2014-07-27T07:19:12Z</time>
      </trkpt>
      <trkpt lat="47.56596" lon="3.6518">
        <ele>167.65</ele>
        <time>2014-07-27T07:19:21Z</time>
      </trkpt>
      <trkpt lat="47.5659" lon="3.65203">
        <ele>167.75</ele>
        <time>2014-07-27T07:19:38Z</time>
      </trkpt>
      <trkpt lat="47.56585" lon="3.65216">
        <ele>167.87</ele>
        <time>2014-07-27T07:19:53Z</time>
      </trkpt>
      <trkpt lat="47.56577" lon="3.65238">
        <ele>168.02</ele>
        <time>2014-07-27T07:20:08Z</time>
      </trkpt>
      <trkpt lat="47.56571" lon="3.65259">
        <ele>168.2</ele>
        <time>2014-07-27T07:20:23Z</time>
      </trkpt>
      <trkpt lat="47.56567" lon="3.65276">
        <ele>168.26</ele>
        <time>2014-07-27T07:20:39Z</time>
      </trkpt>
      <trkpt lat="47.56557" lon="3.65307">
        <ele>168.44</ele>
        <time>2014-07-27T07:20:59Z</time>
      </trkpt>
      <trkpt lat="47.56551" lon="3.65327">
        <ele>168.83</ele>
        <time>2014-07-27T07:21:12Z</time>
      </trkpt>
      <trkpt lat="47.56545" lon="3.65347">
        <ele>169.18</ele>
        <time>2014-07-27T07:21:25Z</time>
      </trkpt>
      <trkpt lat="47.56533" lon="3.65371">
        <ele>169.24</ele>
        <time>2014-07-27T07:21:43Z</time>
      </trkpt>
      <trkpt lat="47.5653" lon="3.65373">
        <ele>169.67</ele>
        <time>2014-07-27T07:22:08Z</time>
      </trkpt>
      <trkpt lat="47.5653" lon="3.65373">
        <ele>169.59</ele>
        <time>2014-07-27T07:22:14Z</time>
      </trkpt>
      <trkpt lat="47.5639" lon="3.65443">
        <ele>170.24</ele>
        <time>2014-07-27T07:26:07Z</time>
      </trkpt>
      <trkpt lat="47.56375" lon="3.65459">
        <ele>169.57</ele>
        <time>2014-07-27T07:26:30Z</time>
      </trkpt>
      <trkpt lat="47.56375" lon="3.65459">
        <ele>169.61</ele>
        <time>2014-07-27T07:26:37Z</time>
      </trkpt>
      <trkpt lat="47.5633" lon="3.65489">
        <ele>168.99</ele>
        <time>2014-07-27T07:28:16Z</time>
      </trkpt>
      <trkpt lat="47.56321" lon="3.6549">
        <ele>168.96</ele>
        <time>2014-07-27T07:28:29Z</time>
      </trkpt>
      <trkpt lat="47.56313" lon="3.65492">
        <ele>169.33</ele>
        <time>2014-07-27T07:28:55Z</time>
      </trkpt>
      <trkpt lat="47.563" lon="3.65499">
        <ele>169.57</ele>
        <time>2014-07-27T07:29:23Z</time>
      </trkpt>
      <trkpt lat="47.56306" lon="3.65497">
        <ele>169.61</ele>
        <time>2014-07-27T07:29:39Z</time>
      </trkpt>
      <trkpt lat="47.56307" lon="3.65487">
        <ele>169.14</ele>
        <time>2014-07-27T07:30:06Z</time>
      </trkpt>
      <trkpt lat="47.56308" lon="3.65491">
        <ele>169.18</ele>
        <time>2014-07-27T07:30:31Z</time>
      </trkpt>
      <trkpt lat="47.56266" lon="3.65504">
        <ele>170.39</ele>
        <time>2014-07-27T07:32:35Z</time>
      </trkpt>
      <trkpt lat="47.56248" lon="3.65497">
        <ele>170.8</ele>
        <time>2014-07-27T07:32:51Z</time>
      </trkpt>
      <trkpt lat="47.56221" lon="3.65488">
        <ele>171.27</ele>
        <time>2014-07-27T07:33:15Z</time>
      </trkpt>
      <trkpt lat="47.56194" lon="3.65483">
        <ele>171.61</ele>
        <time>2014-07-27T07:33:38Z</time>
      </trkpt>
      <trkpt lat="47.56173" lon="3.65478">
        <ele>172.05</ele>
        <time>2014-07-27T07:33:55Z</time>
      </trkpt>
      <trkpt lat="47.56148" lon="3.65473">
        <ele>172.51</ele>
        <time>2014-07-27T07:34:14Z</time>
      </trkpt>
      <trkpt lat="47.56128" lon="3.65473">
        <ele>173.2</ele>
        <time>2014-07-27T07:34:30Z</time>
      </trkpt>
      <trkpt lat="47.56115" lon="3.6547">
        <ele>172.96</ele>
        <time>2014-07-27T07:34:47Z</time>
      </trkpt>
      <trkpt lat="47.56107" lon="3.65465">
        <ele>173.05</ele>
        <time>2014-07-27T07:35:06Z</time>
      </trkpt>
      <trkpt lat="47.561" lon="3.65465">
        <ele>173.16</ele>
        <time>2014-07-27T07:35:19Z</time>
      </trkpt>
      <trkpt lat="47.56089" lon="3.65459">
        <ele>173.45</ele>
        <time>2014-07-27T07:35:34Z</time>
      </trkpt>
      <trkpt lat="47.56087" lon="3.65458">
        <ele>173.5</ele>
        <time>2014-07-27T07:35:36Z</time>
      </trkpt>
      <trkpt lat="47.56077" lon="3.65457">
        <ele>173.63</ele>
        <time>2014-07-27T07:35:44Z</time>
      </trkpt>
      <trkpt lat="47.56061" lon="3.65451">
        <ele>173.98</ele>
        <time>2014-07-27T07:35:57Z</time>
      </trkpt>
      <trkpt lat="47.5606" lon="3.6545">
        <ele>174.02</ele>
        <time>2014-07-27T07:35:58Z</time>
      </trkpt>
      <trkpt lat="47.56047" lon="3.65443">
        <ele>174.02</ele>
        <time>2014-07-27T07:36:12Z</time>
      </trkpt>
      <trkpt lat="47.56041" lon="3.65439">
        <ele>174.08</ele>
        <time>2014-07-27T07:36:19Z</time>
      </trkpt>
      <trkpt lat="47.56014" lon="3.65427">
        <ele>174.78</ele>
        <time>2014-07-27T07:36:44Z</time>
      </trkpt>
      <trkpt lat="47.5601" lon="3.65426">
        <ele>175.11</ele>
        <time>2014-07-27T07:36:48Z</time>
      </trkpt>
      <trkpt lat="47.55995" lon="3.65443">
        <ele>176.67</ele>
        <time>2014-07-27T07:37:12Z</time>
      </trkpt>
      <trkpt lat="47.55995" lon="3.65441">
        <ele>177.26</ele>
        <time>2014-07-27T07:37:58Z</time>
      </trkpt>
      <trkpt lat="47.55987" lon="3.65434">
        <ele>177.33</ele>
        <time>2014-07-27T07:38:21Z</time>
      </trkpt>
      <trkpt lat="47.55973" lon="3.65412">
        <ele>176.93</ele>
        <time>2014-07-27T07:38:47Z</time>
      </trkpt>
      <trkpt lat="47.55958" lon="3.65379">
        <ele>176.4</ele>
        <time>2014-07-27T07:39:12Z</time>
      </trkpt>
      <trkpt lat="47.55939" lon="3.65344">
        <ele>175.27</ele>
        <time>2014-07-27T07:39:36Z</time>
      </trkpt>
      <trkpt lat="47.55918" lon="3.65311">
        <ele>173.64</ele>
        <time>2014-07-27T07:40:02Z</time>
      </trkpt>
      <trkpt lat="47.55896" lon="3.65276">
        <ele>172.26</ele>
        <time>2014-07-27T07:40:27Z</time>
      </trkpt>
      <trkpt lat="47.55875" lon="3.65246">
        <ele>171.45</ele>
        <time>2014-07-27T07:40:52Z</time>
      </trkpt>
      <trkpt lat="47.55856" lon="3.65216">
        <ele>169.97</ele>
        <time>2014-07-27T07:41:14Z</time>
      </trkpt>
      <trkpt lat="47.55841" lon="3.65182">
        <ele>167.06</ele>
        <time>2014-07-27T07:41:35Z</time>
      </trkpt>
      <trkpt lat="47.5583" lon="3.65154">
        <ele>165.33</ele>
        <time>2014-07-27T07:41:57Z</time>
      </trkpt>
      <trkpt lat="47.55821" lon="3.65141">
        <ele>164.81</ele>
        <time>2014-07-27T07:42:32Z</time>
      </trkpt>
      <trkpt lat="47.5582" lon="3.6514">
        <ele>164.62</ele>
        <time>2014-07-27T07:42:38Z</time>
      </trkpt>
      <trkpt lat="47.5579" lon="3.65035">
        <ele>160.74</ele>
        <time>2014-07-27T07:46:13Z</time>
      </trkpt>
      <trkpt lat="47.55789" lon="3.65024">
        <ele>160.01</ele>
        <time>2014-07-27T07:46:28Z</time>
      </trkpt>
      <trkpt lat="47.55788" lon="3.65013">
        <ele>159.78</ele>
        <time>2014-07-27T07:46:54Z</time>
      </trkpt>
      <trkpt lat="47.55789" lon="3.65016">
        <ele>159.85</ele>
        <time>2014-07-27T07:47:17Z</time>
      </trkpt>
      <trkpt lat="47.55907" lon="3.65287">
        <ele>172.44</ele>
        <time>2014-07-27T07:56:56Z</time>
      </trkpt>
      <trkpt lat="47.5593" lon="3.6532">
        <ele>174.06</ele>
        <time>2014-07-27T07:57:25Z</time>
      </trkpt>
      <trkpt lat="47.55945" lon="3.65353">
        <ele>175.71</ele>
        <time>2014-07-27T07:57:49Z</time>
      </trkpt>
      <trkpt lat="47.55951" lon="3.65365">
        <ele>175.82</ele>
        <time>2014-07-27T07:57:58Z</time>
      </trkpt>
      <trkpt lat="47.5596" lon="3.6538">
        <ele>176.06</ele>
        <time>2014-07-27T07:58:28Z</time>
      </trkpt>
      <trkpt lat="47.5596" lon="3.65379">
        <ele>176.3</ele>
        <time>2014-07-27T07:58:53Z</time>
      </trkpt>
      <trkpt lat="47.55981" lon="3.65504">
        <ele>177.35</ele>
        <time>2014-07-27T08:15:20Z</time>
      </trkpt>
      <trkpt lat="47.55971" lon="3.65531">
        <ele>177.9</ele>
        <time>2014-07-27T08:15:42Z</time>
      </trkpt>
      <trkpt lat="47.55957" lon="3.65567">
        <ele>177.92</ele>
        <time>2014-07-27T08:16:08Z</time>
      </trkpt>
      <trkpt lat="47.55947" lon="3.65593">
        <ele>177.13</ele>
        <time>2014-07-27T08:16:23Z</time>
      </trkpt>
      <trkpt lat="47.5594" lon="3.65614">
        <ele>177.51</ele>
        <time>2014-07-27T08:16:55Z</time>
      </trkpt>
      <trkpt lat="47.55937" lon="3.65624">
        <ele>177.24</ele>
        <time>2014-07-27T08:17:02Z</time>
      </trkpt>
      <trkpt lat="47.55925" lon="3.6565">
        <ele>176.55</ele>
        <time>2014-07-27T08:17:22Z</time>
      </trkpt>
      <trkpt lat="47.5591" lon="3.65679">
        <ele>175.67</ele>
        <time>2014-07-27T08:17:47Z</time>
      </trkpt>
      <trkpt lat="47.55903" lon="3.65705">
        <ele>174.56</ele>
        <time>2014-07-27T08:18:13Z</time>
      </trkpt>
      <trkpt lat="47.55892" lon="3.65739">
        <ele>173.07</ele>
        <time>2014-07-27T08:18:38Z</time>
      </trkpt>
      <trkpt lat="47.55884" lon="3.65758">
        <ele>172.24</ele>
        <time>2014-07-27T08:18:52Z</time>
      </trkpt>
      <trkpt lat="47.55874" lon="3.65763">
        <ele>171.44</ele>
        <time>2014-07-27T08:19:06Z</time>
      </trkpt>
      <trkpt lat="47.55873" lon="3.65765">
        <ele>171.35</ele>
        <time>2014-07-27T08:19:11Z</time>
      </trkpt>
      <trkpt lat="47.55871" lon="3.65759">
        <ele>171.39</ele>
        <time>2014-07-27T08:19:29Z</time>
      </trkpt>
      <trkpt lat="47.5587" lon="3.65756">
        <ele>171.3</ele>
        <time>2014-07-27T08:19:42Z</time>
      </trkpt>
      <trkpt lat="47.5587" lon="3.65758">
        <ele>171.22</ele>
        <time>2014-07-27T08:19:56Z</time>
      </trkpt>
      <trkpt lat="47.55869" lon="3.65754">
        <ele>171</ele>
        <time>2014-07-27T08:20:25Z</time>
      </trkpt>
      <trkpt lat="47.55859" lon="3.65751">
        <ele>170.94</ele>
        <time>2014-07-27T08:20:41Z</time>
      </trkpt>
      <trkpt lat="47.55838" lon="3.65744">
        <ele>170.08</ele>
        <time>2014-07-27T08:21:05Z</time>
      </trkpt>
      <trkpt lat="47.55835" lon="3.65744">
        <ele>170.12</ele>
        <time>2014-07-27T08:21:13Z</time>
      </trkpt>
      <trkpt lat="47.55825" lon="3.65736">
        <ele>170.15</ele>
        <time>2014-07-27T08:21:23Z</time>
      </trkpt>
      <trkpt lat="47.55815" lon="3.65725">
        <ele>169.98</ele>
        <time>2014-07-27T08:21:35Z</time>
      </trkpt>
      <trkpt lat="47.55793" lon="3.65698">
        <ele>169.63</ele>
        <time>2014-07-27T08:21:59Z</time>
      </trkpt>
      <trkpt lat="47.55776" lon="3.6567">
        <ele>169.09</ele>
        <time>2014-07-27T08:22:25Z</time>
      </trkpt>
      <trkpt lat="47.55774" lon="3.65667">
        <ele>169.12</ele>
        <time>2014-07-27T08:22:29Z</time>
      </trkpt>
      <trkpt lat="47.55757" lon="3.65635">
        <ele>169.03</ele>
        <time>2014-07-27T08:23:00Z</time>
      </trkpt>
      <trkpt lat="47.55745" lon="3.65607">
        <ele>168.62</ele>
        <time>2014-07-27T08:23:23Z</time>
      </trkpt>
      <trkpt lat="47.55723" lon="3.65566">
        <ele>169.23</ele>
        <time>2014-07-27T08:23:52Z</time>
      </trkpt>
      <trkpt lat="47.55713" lon="3.65541">
        <ele>169.24</ele>
        <time>2014-07-27T08:24:13Z</time>
      </trkpt>
      <trkpt lat="47.55712" lon="3.6554">
        <ele>169.26</ele>
        <time>2014-07-27T08:24:17Z</time>
      </trkpt>
      <trkpt lat="47.55694" lon="3.65508">
        <ele>169.31</ele>
        <time>2014-07-27T08:24:51Z</time>
      </trkpt>
      <trkpt lat="47.55693" lon="3.65506">
        <ele>169.36</ele>
        <time>2014-07-27T08:24:53Z</time>
      </trkpt>
      <trkpt lat="47.55642" lon="3.65415">
        <ele>170.21</ele>
        <time>2014-07-27T08:26:18Z</time>
      </trkpt>
      <trkpt lat="47.55627" lon="3.65399">
        <ele>170.31</ele>
        <time>2014-07-27T08:26:41Z</time>
      </trkpt>
      <trkpt lat="47.55607" lon="3.65384">
        <ele>170.26</ele>
        <time>2014-07-27T08:27:06Z</time>
      </trkpt>
      <trkpt lat="47.55585" lon="3.65363">
        <ele>170.55</ele>
        <time>2014-07-27T08:27:32Z</time>
      </trkpt>
      <trkpt lat="47.55565" lon="3.65344">
        <ele>170.79</ele>
        <time>2014-07-27T08:27:53Z</time>
      </trkpt>
      <trkpt lat="47.55538" lon="3.65324">
        <ele>170.17</ele>
        <time>2014-07-27T08:28:17Z</time>
      </trkpt>
      <trkpt lat="47.55521" lon="3.6531">
        <ele>169.8</ele>
        <time>2014-07-27T08:28:36Z</time>
      </trkpt>
      <trkpt lat="47.5551" lon="3.65304">
        <ele>169.5</ele>
        <time>2014-07-27T08:28:47Z</time>
      </trkpt>
      <trkpt lat="47.5549" lon="3.65294">
        <ele>168.39</ele>
        <time>2014-07-27T08:29:11Z</time>
      </trkpt>
      <trkpt lat="47.55461" lon="3.65287">
        <ele>167.45</ele>
        <time>2014-07-27T08:29:35Z</time>
      </trkpt>
      <trkpt lat="47.55439" lon="3.65287">
        <ele>166.41</ele>
        <time>2014-07-27T08:29:54Z</time>
      </trkpt>
      <trkpt lat="47.55409" lon="3.65282">
        <ele>165.41</ele>
        <time>2014-07-27T08:30:18Z</time>
      </trkpt>
      <trkpt lat="47.55405" lon="3.65283">
        <ele>165.25</ele>
        <time>2014-07-27T08:30:24Z</time>
      </trkpt>
      <trkpt lat="47.5538" lon="3.65277">
        <ele>164.87</ele>
        <time>2014-07-27T08:30:50Z</time>
      </trkpt>
      <trkpt lat="47.55375" lon="3.65274">
        <ele>164.93</ele>
        <time>2014-07-27T08:30:56Z</time>
      </trkpt>
      <trkpt lat="47.55355" lon="3.6526">
        <ele>164.57</ele>
        <time>2014-07-27T08:31:19Z</time>
      </trkpt>
      <trkpt lat="47.55334" lon="3.65245">
        <ele>164.08</ele>
        <time>2014-07-27T08:31:39Z</time>
      </trkpt>
      <trkpt lat="47.55308" lon="3.65231">
        <ele>163.83</ele>
        <time>2014-07-27T08:32:03Z</time>
      </trkpt>
      <trkpt lat="47.553" lon="3.65228">
        <ele>163.93</ele>
        <time>2014-07-27T08:32:35Z</time>
      </trkpt>
      <trkpt lat="47.55298" lon="3.65224">
        <ele>163.83</ele>
        <time>2014-07-27T08:32:50Z</time>
      </trkpt>
      <trkpt lat="47.55001" lon="3.65325">
        <ele>130.31</ele>
        <time>2014-07-27T08:55:28Z</time>
      </trkpt>
      <trkpt lat="47.55008" lon="3.65327">
        <ele>130.28</ele>
        <time>2014-07-27T08:55:59Z</time>
      </trkpt>
      <trkpt lat="47.55013" lon="3.65325">
        <ele>130.23</ele>
        <time>2014-07-27T08:56:49Z</time>
      </trkpt>
      <trkpt lat="47.55016" lon="3.65329">
        <ele>130.31</ele>
        <time>2014-07-27T08:57:07Z</time>
      </trkpt>
      <trkpt lat="47.55081" lon="3.6532">
        <ele>130.7</ele>
        <time>2014-07-27T08:58:21Z</time>
      </trkpt>
      <trkpt lat="47.55114" lon="3.65335">
        <ele>131.12</ele>
        <time>2014-07-27T08:58:44Z</time>
      </trkpt>
      <trkpt lat="47.5512" lon="3.65343">
        <ele>131.38</ele>
        <time>2014-07-27T08:58:52Z</time>
      </trkpt>
      <trkpt lat="47.55121" lon="3.65356">
        <ele>131.09</ele>
        <time>2014-07-27T08:59:11Z</time>
      </trkpt>
      <trkpt lat="47.55118" lon="3.65364">
        <ele>131.01</ele>
        <time>2014-07-27T08:59:16Z</time>
      </trkpt>
      <trkpt lat="47.55113" lon="3.65375">
        <ele>130.77</ele>
        <time>2014-07-27T08:59:23Z</time>
      </trkpt>
      <trkpt lat="47.55109" lon="3.65381">
        <ele>130.75</ele>
        <time>2014-07-27T08:59:27Z</time>
      </trkpt>
      <trkpt lat="47.55108" lon="3.65384">
        <ele>130.75</ele>
        <time>2014-07-27T08:59:29Z</time>
      </trkpt>
      <trkpt lat="47.55097" lon="3.65409">
        <ele>130.7</ele>
        <time>2014-07-27T08:59:42Z</time>
      </trkpt>
      <trkpt lat="47.55096" lon="3.65415">
        <ele>130.64</ele>
        <time>2014-07-27T08:59:46Z</time>
      </trkpt>
      <trkpt lat="47.55085" lon="3.65439">
        <ele>130.79</ele>
        <time>2014-07-27T08:59:59Z</time>
      </trkpt>
      <trkpt lat="47.55083" lon="3.65442">
        <ele>130.88</ele>
        <time>2014-07-27T09:00:01Z</time>
      </trkpt>
      <trkpt lat="47.55078" lon="3.65453">
        <ele>131.18</ele>
        <time>2014-07-27T09:00:08Z</time>
      </trkpt>
      <trkpt lat="47.55073" lon="3.65471">
        <ele>131.92</ele>
        <time>2014-07-27T09:00:24Z</time>
      </trkpt>
      <trkpt lat="47.55072" lon="3.65478">
        <ele>132.54</ele>
        <time>2014-07-27T09:00:33Z</time>
      </trkpt>
      <trkpt lat="47.55058" lon="3.65495">
        <ele>133.69</ele>
        <time>2014-07-27T09:00:59Z</time>
      </trkpt>
      <trkpt lat="47.55048" lon="3.65506">
        <ele>134.28</ele>
        <time>2014-07-27T09:01:10Z</time>
      </trkpt>
      <trkpt lat="47.55033" lon="3.65528">
        <ele>134.9</ele>
        <time>2014-07-27T09:01:26Z</time>
      </trkpt>
      <trkpt lat="47.55021" lon="3.65556">
        <ele>135.63</ele>
        <time>2014-07-27T09:01:41Z</time>
      </trkpt>
      <trkpt lat="47.55015" lon="3.65575">
        <ele>136.29</ele>
        <time>2014-07-27T09:01:55Z</time>
      </trkpt>
      <trkpt lat="47.55002" lon="3.65606">
        <ele>137.38</ele>
        <time>2014-07-27T09:02:16Z</time>
      </trkpt>
      <trkpt lat="47.5489" lon="3.65518">
        <ele>146.17</ele>
        <time>2014-07-27T09:04:49Z</time>
      </trkpt>
      <trkpt lat="47.54888" lon="3.65517">
        <ele>146.94</ele>
        <time>2014-07-27T09:04:56Z</time>
      </trkpt>
      <trkpt lat="47.5483" lon="3.65507">
        <ele>154.34</ele>
        <time>2014-07-27T09:06:04Z</time>
      </trkpt>
      <trkpt lat="47.54817" lon="3.65509">
        <ele>156.07</ele>
        <time>2014-07-27T09:06:17Z</time>
      </trkpt>
      <trkpt lat="47.54597" lon="3.65395">
        <ele>167.16</ele>
        <time>2014-07-27T09:09:31Z</time>
      </trkpt>
      <trkpt lat="47.54588" lon="3.65386">
        <ele>167.56</ele>
        <time>2014-07-27T09:09:40Z</time>
      </trkpt>
      <trkpt lat="47.54496" lon="3.65307">
        <ele>171.81</ele>
        <time>2014-07-27T09:11:25Z</time>
      </trkpt>
      <trkpt lat="47.54493" lon="3.65304">
        <ele>172.02</ele>
        <time>2014-07-27T09:11:28Z</time>
      </trkpt>
      <trkpt lat="47.54442" lon="3.65271">
        <ele>175.77</ele>
        <time>2014-07-27T09:12:17Z</time>
      </trkpt>
      <trkpt lat="47.54436" lon="3.65264">
        <ele>176.27</ele>
        <time>2014-07-27T09:12:23Z</time>
      </trkpt>
      <trkpt lat="47.54358" lon="3.65277">
        <ele>179.88</ele>
        <time>2014-07-27T09:20:34Z</time>
      </trkpt>
      <trkpt lat="47.5436" lon="3.65281">
        <ele>179.83</ele>
        <time>2014-07-27T09:20:37Z</time>
      </trkpt>
      <trkpt lat="47.54378" lon="3.65316">
        <ele>178.43</ele>
        <time>2014-07-27T09:21:00Z</time>
      </trkpt>
      <trkpt lat="47.54397" lon="3.65355">
        <ele>177.64</ele>
        <time>2014-07-27T09:21:22Z</time>
      </trkpt>
      <trkpt lat="47.54412" lon="3.65392">
        <ele>176.7</ele>
        <time>2014-07-27T09:21:44Z</time>
      </trkpt>
      <trkpt lat="47.5442" lon="3.65415">
        <ele>176.44</ele>
        <time>2014-07-27T09:21:58Z</time>
      </trkpt>
      <trkpt lat="47.54426" lon="3.65438">
        <ele>175.7</ele>
        <time>2014-07-27T09:22:12Z</time>
      </trkpt>
      <trkpt lat="47.54428" lon="3.65471">
        <ele>175.04</ele>
        <time>2014-07-27T09:22:29Z</time>
      </trkpt>
      <trkpt lat="47.54431" lon="3.65483">
        <ele>174.62</ele>
        <time>2014-07-27T09:22:37Z</time>
      </trkpt>
      <trkpt lat="47.54431" lon="3.65491">
        <ele>174.56</ele>
        <time>2014-07-27T09:22:43Z</time>
      </trkpt>
      <trkpt lat="47.54429" lon="3.65497">
        <ele>174.57</ele>
        <time>2014-07-27T09:22:50Z</time>
      </trkpt>
      <trkpt lat="47.54308" lon="3.65639">
        <ele>176.75</ele>
        <time>2014-07-27T09:27:25Z</time>
      </trkpt>
      <trkpt lat="47.54304" lon="3.65648">
        <ele>176.93</ele>
        <time>2014-07-27T09:27:32Z</time>
      </trkpt>
      <trkpt lat="47.5423" lon="3.65821">
        <ele>178.21</ele>
        <time>2014-07-27T09:29:21Z</time>
      </trkpt>
      <trkpt lat="47.54223" lon="3.6586">
        <ele>177.19</ele>
        <time>2014-07-27T09:29:44Z</time>
      </trkpt>
      <trkpt lat="47.54219" lon="3.6588">
        <ele>176.77</ele>
        <time>2014-07-27T09:29:54Z</time>
      </trkpt>
      <trkpt lat="47.54203" lon="3.65925">
        <ele>175.09</ele>
        <time>2014-07-27T09:30:19Z</time>
      </trkpt>
      <trkpt lat="47.54192" lon="3.65956">
        <ele>174.75</ele>
        <time>2014-07-27T09:30:39Z</time>
      </trkpt>
      <trkpt lat="47.54193" lon="3.66083">
        <ele>179.89</ele>
        <time>2014-07-27T09:31:51Z</time>
      </trkpt>
      <trkpt lat="47.54191" lon="3.66123">
        <ele>182.31</ele>
        <time>2014-07-27T09:32:12Z</time>
      </trkpt>
      <trkpt lat="47.54189" lon="3.6616">
        <ele>184.79</ele>
        <time>2014-07-27T09:32:35Z</time>
      </trkpt>
      <trkpt lat="47.54176" lon="3.66245">
        <ele>190.62</ele>
        <time>2014-07-27T09:46:37Z</time>
      </trkpt>
      <trkpt lat="47.54171" lon="3.6628">
        <ele>192.92</ele>
        <time>2014-07-27T09:47:03Z</time>
      </trkpt>
      <trkpt lat="47.54167" lon="3.66322">
        <ele>195.27</ele>
        <time>2014-07-27T09:47:30Z</time>
      </trkpt>
      <trkpt lat="47.54166" lon="3.66366">
        <ele>196.77</ele>
        <time>2014-07-27T09:47:53Z</time>
      </trkpt>
      <trkpt lat="47.54161" lon="3.6639">
        <ele>197.77</ele>
        <time>2014-07-27T09:48:11Z</time>
      </trkpt>
      <trkpt lat="47.54147" lon="3.66341">
        <ele>201.03</ele>
        <time>2014-07-27T09:49:15Z</time>
      </trkpt>
      <trkpt lat="47.54145" lon="3.66333">
        <ele>201.3</ele>
        <time>2014-07-27T09:49:20Z</time>
      </trkpt>
      <trkpt lat="47.54136" lon="3.66313">
        <ele>201.9</ele>
        <time>2014-07-27T09:49:33Z</time>
      </trkpt>
      <trkpt lat="47.54134" lon="3.66309">
        <ele>202</ele>
        <time>2014-07-27T09:49:35Z</time>
      </trkpt>
      <trkpt lat="47.54123" lon="3.6628">
        <ele>201.9</ele>
        <time>2014-07-27T09:49:52Z</time>
      </trkpt>
      <trkpt lat="47.54102" lon="3.66242">
        <ele>201.91</ele>
        <time>2014-07-27T09:50:20Z</time>
      </trkpt>
      <trkpt lat="47.5408" lon="3.66196">
        <ele>201.74</ele>
        <time>2014-07-27T09:50:48Z</time>
      </trkpt>
      <trkpt lat="47.54065" lon="3.66159">
        <ele>200.86</ele>
        <time>2014-07-27T09:51:14Z</time>
      </trkpt>
      <trkpt lat="47.54064" lon="3.66152">
        <ele>200.62</ele>
        <time>2014-07-27T09:51:20Z</time>
      </trkpt>
      <trkpt lat="47.54052" lon="3.66084">
        <ele>198.58</ele>
        <time>2014-07-27T09:52:10Z</time>
      </trkpt>
      <trkpt lat="47.54044" lon="3.66056">
        <ele>197.24</ele>
        <time>2014-07-27T09:52:26Z</time>
      </trkpt>
      <trkpt lat="47.54041" lon="3.66045">
        <ele>196.49</ele>
        <time>2014-07-27T09:52:35Z</time>
      </trkpt>
      <trkpt lat="47.54018" lon="3.66">
        <ele>191.47</ele>
        <time>2014-07-27T09:53:10Z</time>
      </trkpt>
      <trkpt lat="47.54001" lon="3.65972">
        <ele>189.28</ele>
        <time>2014-07-27T09:53:32Z</time>
      </trkpt>
      <trkpt lat="47.53999" lon="3.65955">
        <ele>189.63</ele>
        <time>2014-07-27T09:53:42Z</time>
      </trkpt>
      <trkpt lat="47.54001" lon="3.6593">
        <ele>190.79</ele>
        <time>2014-07-27T09:53:56Z</time>
      </trkpt>
      <trkpt lat="47.53998" lon="3.65897">
        <ele>193.76</ele>
        <time>2014-07-27T09:54:15Z</time>
      </trkpt>
      <trkpt lat="47.53993" lon="3.65853">
        <ele>195.1</ele>
        <time>2014-07-27T09:54:39Z</time>
      </trkpt>
      <trkpt lat="47.5399" lon="3.65807">
        <ele>196.08</ele>
        <time>2014-07-27T09:55:02Z</time>
      </trkpt>
      <trkpt lat="47.53991" lon="3.65772">
        <ele>196.98</ele>
        <time>2014-07-27T09:55:20Z</time>
      </trkpt>
      <trkpt lat="47.53989" lon="3.65742">
        <ele>197.12</ele>
        <time>2014-07-27T09:55:36Z</time>
      </trkpt>
      <trkpt lat="47.53984" lon="3.65711">
        <ele>197.1</ele>
        <time>2014-07-27T09:55:53Z</time>
      </trkpt>
      <trkpt lat="47.53981" lon="3.65683">
        <ele>197.41</ele>
        <time>2014-07-27T09:56:07Z</time>
      </trkpt>
      <trkpt lat="47.53981" lon="3.65675">
        <ele>197.4</ele>
        <time>2014-07-27T09:56:11Z</time>
      </trkpt>
      <trkpt lat="47.53976" lon="3.65658">
        <ele>197.43</ele>
        <time>2014-07-27T09:56:20Z</time>
      </trkpt>
      <trkpt lat="47.53966" lon="3.65621">
        <ele>197.54</ele>
        <time>2014-07-27T09:56:38Z</time>
      </trkpt>
      <trkpt lat="47.53963" lon="3.65612">
        <ele>197.76</ele>
        <time>2014-07-27T09:56:43Z</time>
      </trkpt>
      <trkpt lat="47.53959" lon="3.65602">
        <ele>197.83</ele>
        <time>2014-07-27T09:56:49Z</time>
      </trkpt>
      <trkpt lat="47.53945" lon="3.65572">
        <ele>197.65</ele>
        <time>2014-07-27T09:57:07Z</time>
      </trkpt>
      <trkpt lat="47.53943" lon="3.65566">
        <ele>197.71</ele>
        <time>2014-07-27T09:57:11Z</time>
      </trkpt>
      <trkpt lat="47.53938" lon="3.65553">
        <ele>197.93</ele>
        <time>2014-07-27T09:57:18Z</time>
      </trkpt>
      <trkpt lat="47.53934" lon="3.65545">
        <ele>198.06</ele>
        <time>2014-07-27T09:57:23Z</time>
      </trkpt>
      <trkpt lat="47.53926" lon="3.65525">
        <ele>197.82</ele>
        <time>2014-07-27T09:57:34Z</time>
      </trkpt>
      <trkpt lat="47.53923" lon="3.65518">
        <ele>197.86</ele>
        <time>2014-07-27T09:57:38Z</time>
      </trkpt>
      <trkpt lat="47.53913" lon="3.65497">
        <ele>197.83</ele>
        <time>2014-07-27T09:57:51Z</time>
      </trkpt>
      <trkpt lat="47.53897" lon="3.65475">
        <ele>197.26</ele>
        <time>2014-07-27T09:58:08Z</time>
      </trkpt>
      <trkpt lat="47.53894" lon="3.65476">
        <ele>197.28</ele>
        <time>2014-07-27T09:58:11Z</time>
      </trkpt>
      <trkpt lat="47.53876" lon="3.65489">
        <ele>198.23</ele>
        <time>2014-07-27T09:58:27Z</time>
      </trkpt>
      <trkpt lat="47.53864" lon="3.65497">
        <ele>199.1</ele>
        <time>2014-07-27T09:58:38Z</time>
      </trkpt>
      <trkpt lat="47.53844" lon="3.65507">
        <ele>200.63</ele>
        <time>2014-07-27T09:58:55Z</time>
      </trkpt>
      <trkpt lat="47.53827" lon="3.65497">
        <ele>201.22</ele>
        <time>2014-07-27T09:59:09Z</time>
      </trkpt>
      <trkpt lat="47.5381" lon="3.65473">
        <ele>201.65</ele>
        <time>2014-07-27T09:59:28Z</time>
      </trkpt>
      <trkpt lat="47.53788" lon="3.65451">
        <ele>201.46</ele>
        <time>2014-07-27T09:59:49Z</time>
      </trkpt>
      <trkpt lat="47.53769" lon="3.65438">
        <ele>201.54</ele>
        <time>2014-07-27T10:00:06Z</time>
      </trkpt>
      <trkpt lat="47.53744" lon="3.65419">
        <ele>201.68</ele>
        <time>2014-07-27T10:00:27Z</time>
      </trkpt>
      <trkpt lat="47.53722" lon="3.65404">
        <ele>201.79</ele>
        <time>2014-07-27T10:00:47Z</time>
      </trkpt>
      <trkpt lat="47.53698" lon="3.65385">
        <ele>201.61</ele>
        <time>2014-07-27T10:01:07Z</time>
      </trkpt>
      <trkpt lat="47.5369" lon="3.65382">
        <ele>201.52</ele>
        <time>2014-07-27T10:01:17Z</time>
      </trkpt>
      <trkpt lat="47.53678" lon="3.65399">
        <ele>202.87</ele>
        <time>2014-07-27T10:01:33Z</time>
      </trkpt>
      <trkpt lat="47.53665" lon="3.65418">
        <ele>204.63</ele>
        <time>2014-07-27T10:01:49Z</time>
      </trkpt>
      <trkpt lat="47.53648" lon="3.6544">
        <ele>206.71</ele>
        <time>2014-07-27T10:02:11Z</time>
      </trkpt>
      <trkpt lat="47.53647" lon="3.65442">
        <ele>206.88</ele>
        <time>2014-07-27T10:02:16Z</time>
      </trkpt>
      <trkpt lat="47.53635" lon="3.65461">
        <ele>208.15</ele>
        <time>2014-07-27T10:02:46Z</time>
      </trkpt>
      <trkpt lat="47.53623" lon="3.65472">
        <ele>209.35</ele>
        <time>2014-07-27T10:03:00Z</time>
      </trkpt>
      <trkpt lat="47.53609" lon="3.65482">
        <ele>210.97</ele>
        <time>2014-07-27T10:03:17Z</time>
      </trkpt>
      <trkpt lat="47.53585" lon="3.6551">
        <ele>213.47</ele>
        <time>2014-07-27T10:03:45Z</time>
      </trkpt>
      <trkpt lat="47.53554" lon="3.65547">
        <ele>216.16</ele>
        <time>2014-07-27T10:04:18Z</time>
      </trkpt>
      <trkpt lat="47.53535" lon="3.6558">
        <ele>218.44</ele>
        <time>2014-07-27T10:04:43Z</time>
      </trkpt>
      <trkpt lat="47.53521" lon="3.65602">
        <ele>219.67</ele>
        <time>2014-07-27T10:05:01Z</time>
      </trkpt>
      <trkpt lat="47.5351" lon="3.65622">
        <ele>220.96</ele>
        <time>2014-07-27T10:05:17Z</time>
      </trkpt>
      <trkpt lat="47.5351" lon="3.65622">
        <ele>221.02</ele>
        <time>2014-07-27T10:05:18Z</time>
      </trkpt>
      <trkpt lat="47.53441" lon="3.65636">
        <ele>223.82</ele>
        <time>2014-07-27T10:07:54Z</time>
      </trkpt>
      <trkpt lat="47.53404" lon="3.65644">
        <ele>224.66</ele>
        <time>2014-07-27T10:08:24Z</time>
      </trkpt>
      <trkpt lat="47.53391" lon="3.65648">
        <ele>225.07</ele>
        <time>2014-07-27T10:08:33Z</time>
      </trkpt>
      <trkpt lat="47.53354" lon="3.65651">
        <ele>227.84</ele>
        <time>2014-07-27T10:08:58Z</time>
      </trkpt>
      <trkpt lat="47.53329" lon="3.65658">
        <ele>228.82</ele>
        <time>2014-07-27T10:09:15Z</time>
      </trkpt>
      <trkpt lat="47.53319" lon="3.65667">
        <ele>229.31</ele>
        <time>2014-07-27T10:09:22Z</time>
      </trkpt>
      <trkpt lat="47.53301" lon="3.65672">
        <ele>230.55</ele>
        <time>2014-07-27T10:09:40Z</time>
      </trkpt>
      <trkpt lat="47.53287" lon="3.65689">
        <ele>231.81</ele>
        <time>2014-07-27T10:09:56Z</time>
      </trkpt>
      <trkpt lat="47.53277" lon="3.6571">
        <ele>233.09</ele>
        <time>2014-07-27T10:10:12Z</time>
      </trkpt>
      <trkpt lat="47.53267" lon="3.65749">
        <ele>235.18</ele>
        <time>2014-07-27T10:10:36Z</time>
      </trkpt>
      <trkpt lat="47.53271" lon="3.65773">
        <ele>236.73</ele>
        <time>2014-07-27T10:10:51Z</time>
      </trkpt>
      <trkpt lat="47.53277" lon="3.65791">
        <ele>237.47</ele>
        <time>2014-07-27T10:11:02Z</time>
      </trkpt>
      <trkpt lat="47.53285" lon="3.65805">
        <ele>238.15</ele>
        <time>2014-07-27T10:11:10Z</time>
      </trkpt>
      <trkpt lat="47.53286" lon="3.65808">
        <ele>238.28</ele>
        <time>2014-07-27T10:11:12Z</time>
      </trkpt>
      <trkpt lat="47.53289" lon="3.65815">
        <ele>238.6</ele>
        <time>2014-07-27T10:11:17Z</time>
      </trkpt>
      <trkpt lat="47.53297" lon="3.65838">
        <ele>239.16</ele>
        <time>2014-07-27T10:11:33Z</time>
      </trkpt>
      <trkpt lat="47.53298" lon="3.65839">
        <ele>239.18</ele>
        <time>2014-07-27T10:11:35Z</time>
      </trkpt>
      <trkpt lat="47.53298" lon="3.65848">
        <ele>239.45</ele>
        <time>2014-07-27T10:11:46Z</time>
      </trkpt>
      <trkpt lat="47.53299" lon="3.65853">
        <ele>239.56</ele>
        <time>2014-07-27T10:11:49Z</time>
      </trkpt>
      <trkpt lat="47.533" lon="3.65868">
        <ele>239.51</ele>
        <time>2014-07-27T10:12:00Z</time>
      </trkpt>
      <trkpt lat="47.53301" lon="3.65882">
        <ele>239.56</ele>
        <time>2014-07-27T10:12:08Z</time>
      </trkpt>
      <trkpt lat="47.53301" lon="3.65905">
        <ele>239.75</ele>
        <time>2014-07-27T10:12:23Z</time>
      </trkpt>
      <trkpt lat="47.53304" lon="3.65918">
        <ele>240</ele>
        <time>2014-07-27T10:12:39Z</time>
      </trkpt>
      <trkpt lat="47.53303" lon="3.6591">
        <ele>240.04</ele>
        <time>2014-07-27T10:12:45Z</time>
      </trkpt>
      <trkpt lat="47.53299" lon="3.65886">
        <ele>240.03</ele>
        <time>2014-07-27T10:13:03Z</time>
      </trkpt>
      <trkpt lat="47.53298" lon="3.65882">
        <ele>239.98</ele>
        <time>2014-07-27T10:13:06Z</time>
      </trkpt>
      <trkpt lat="47.53297" lon="3.65852">
        <ele>239.72</ele>
        <time>2014-07-27T10:13:24Z</time>
      </trkpt>
      <trkpt lat="47.53295" lon="3.6584">
        <ele>239.52</ele>
        <time>2014-07-27T10:13:35Z</time>
      </trkpt>
      <trkpt lat="47.53287" lon="3.65805">
        <ele>238.88</ele>
        <time>2014-07-27T10:14:22Z</time>
      </trkpt>
      <trkpt lat="47.53277" lon="3.65783">
        <ele>238.07</ele>
        <time>2014-07-27T10:14:35Z</time>
      </trkpt>
      <trkpt lat="47.53274" lon="3.65776">
        <ele>237.69</ele>
        <time>2014-07-27T10:14:44Z</time>
      </trkpt>
      <trkpt lat="47.53284" lon="3.65815">
        <ele>238.61</ele>
        <time>2014-07-27T10:16:18Z</time>
      </trkpt>
      <trkpt lat="47.53287" lon="3.65822">
        <ele>238.77</ele>
        <time>2014-07-27T10:16:22Z</time>
      </trkpt>
      <trkpt lat="47.53295" lon="3.65849">
        <ele>239.15</ele>
        <time>2014-07-27T10:16:38Z</time>
      </trkpt>
      <trkpt lat="47.53297" lon="3.65874">
        <ele>239.5</ele>
        <time>2014-07-27T10:16:52Z</time>
      </trkpt>
      <trkpt lat="47.53301" lon="3.65902">
        <ele>239.98</ele>
        <time>2014-07-27T10:17:06Z</time>
      </trkpt>
      <trkpt lat="47.53303" lon="3.65933">
        <ele>240.33</ele>
        <time>2014-07-27T10:17:23Z</time>
      </trkpt>
      <trkpt lat="47.53306" lon="3.65962">
        <ele>240.5</ele>
        <time>2014-07-27T10:17:38Z</time>
      </trkpt>
      <trkpt lat="47.53303" lon="3.65963">
        <ele>240.63</ele>
        <time>2014-07-27T10:17:46Z</time>
      </trkpt>
      <trkpt lat="47.5305" lon="3.66092">
        <ele>246.4</ele>
        <time>2014-07-27T10:31:51Z</time>
      </trkpt>
      <trkpt lat="47.53035" lon="3.66102">
        <ele>245.76</ele>
        <time>2014-07-27T10:32:09Z</time>
      </trkpt>
      <trkpt lat="47.53017" lon="3.66118">
        <ele>245.23</ele>
        <time>2014-07-27T10:32:28Z</time>
      </trkpt>
      <trkpt lat="47.53002" lon="3.66128">
        <ele>244.39</ele>
        <time>2014-07-27T10:32:45Z</time>
      </trkpt>
      <trkpt lat="47.52968" lon="3.6616">
        <ele>241.22</ele>
        <time>2014-07-27T10:33:47Z</time>
      </trkpt>
      <trkpt lat="47.52966" lon="3.66158">
        <ele>241.01</ele>
        <time>2014-07-27T10:33:54Z</time>
      </trkpt>
      <trkpt lat="47.52904" lon="3.65816">
        <ele>250.67</ele>
        <time>2014-07-27T10:40:09Z</time>
      </trkpt>
      <trkpt lat="47.52899" lon="3.658">
        <ele>250.38</ele>
        <time>2014-07-27T10:40:21Z</time>
      </trkpt>
      <trkpt lat="47.52877" lon="3.65759">
        <ele>250.14</ele>
        <time>2014-07-27T10:40:53Z</time>
      </trkpt>
      <trkpt lat="47.52858" lon="3.65719">
        <ele>249.39</ele>
        <time>2014-07-27T10:41:18Z</time>
      </trkpt>
      <trkpt lat="47.52854" lon="3.65716">
        <ele>249.07</ele>
        <time>2014-07-27T10:41:24Z</time>
      </trkpt>
      <trkpt lat="47.52819" lon="3.65666">
        <ele>248.51</ele>
        <time>2014-07-27T10:42:00Z</time>
      </trkpt>
      <trkpt lat="47.52814" lon="3.65658">
        <ele>248.71</ele>
        <time>2014-07-27T10:42:08Z</time>
      </trkpt>
      <trkpt lat="47.5273" lon="3.65635">
        <ele>246.62</ele>
        <time>2014-07-27T10:50:27Z</time>
      </trkpt>
      <trkpt lat="47.52724" lon="3.65637">
        <ele>247.26</ele>
        <time>2014-07-27T10:50:36Z</time>
      </trkpt>
      <trkpt lat="47.5269" lon="3.6564">
        <ele>248.79</ele>
        <time>2014-07-27T10:51:18Z</time>
      </trkpt>
      <trkpt lat="47.52676" lon="3.65647">
        <ele>250.17</ele>
        <time>2014-07-27T10:51:31Z</time>
      </trkpt>
      <trkpt lat="47.52671" lon="3.6566">
        <ele>252.13</ele>
        <time>2014-07-27T10:51:48Z</time>
      </trkpt>
      <trkpt lat="47.5257" lon="3.65654">
        <ele>260.7</ele>
        <time>2014-07-27T10:55:42Z</time>
      </trkpt>
      <trkpt lat="47.5255" lon="3.65648">
        <ele>262.48</ele>
        <time>2014-07-27T10:56:01Z</time>
      </trkpt>
      <trkpt lat="47.52511" lon="3.65638">
        <ele>265.01</ele>
        <time>2014-07-27T10:56:32Z</time>
      </trkpt>
      <trkpt lat="47.52487" lon="3.65617">
        <ele>266.04</ele>
        <time>2014-07-27T10:56:55Z</time>
      </trkpt>
      <trkpt lat="47.52475" lon="3.65605">
        <ele>266.6</ele>
        <time>2014-07-27T10:57:08Z</time>
      </trkpt>
      <trkpt lat="47.52467" lon="3.65593">
        <ele>267.29</ele>
        <time>2014-07-27T10:57:21Z</time>
      </trkpt>
      <trkpt lat="47.52458" lon="3.65586">
        <ele>267.33</ele>
        <time>2014-07-27T10:57:32Z</time>
      </trkpt>
      <trkpt lat="47.52436" lon="3.65576">
        <ele>268.33</ele>
        <time>2014-07-27T10:57:50Z</time>
      </trkpt>
      <trkpt lat="47.52427" lon="3.65593">
        <ele>268.77</ele>
        <time>2014-07-27T10:58:05Z</time>
      </trkpt>
      <trkpt lat="47.52428" lon="3.65599">
        <ele>269.23</ele>
        <time>2014-07-27T10:58:13Z</time>
      </trkpt>
      <trkpt lat="47.52325" lon="3.65572">
        <ele>266.11</ele>
        <time>2014-07-27T12:06:08Z</time>
      </trkpt>
      <trkpt lat="47.52309" lon="3.65567">
        <ele>264.69</ele>
        <time>2014-07-27T12:06:24Z</time>
      </trkpt>
      <trkpt lat="47.52298" lon="3.65559">
        <ele>263.48</ele>
        <time>2014-07-27T12:06:37Z</time>
      </trkpt>
      <trkpt lat="47.52296" lon="3.65559">
        <ele>263.24</ele>
        <time>2014-07-27T12:06:39Z</time>
      </trkpt>
      <trkpt lat="47.52281" lon="3.65552">
        <ele>261.67</ele>
        <time>2014-07-27T12:06:53Z</time>
      </trkpt>
      <trkpt lat="47.52265" lon="3.65539">
        <ele>259.18</ele>
        <time>2014-07-27T12:07:12Z</time>
      </trkpt>
      <trkpt lat="47.52263" lon="3.65537">
        <ele>258.7</ele>
        <time>2014-07-27T12:07:16Z</time>
      </trkpt>
      <trkpt lat="47.52239" lon="3.65525">
        <ele>256.22</ele>
        <time>2014-07-27T12:07:39Z</time>
      </trkpt>
      <trkpt lat="47.52236" lon="3.65524">
        <ele>255.99</ele>
        <time>2014-07-27T12:07:41Z</time>
      </trkpt>
      <trkpt lat="47.52229" lon="3.65523">
        <ele>255.42</ele>
        <time>2014-07-27T12:07:47Z</time>
      </trkpt>
      <trkpt lat="47.52223" lon="3.65521">
        <ele>254.82</ele>
        <time>2014-07-27T12:07:52Z</time>
      </trkpt>
      <trkpt lat="47.52208" lon="3.65515">
        <ele>253.64</ele>
        <time>2014-07-27T12:08:04Z</time>
      </trkpt>
      <trkpt lat="47.52203" lon="3.65513">
        <ele>253.11</ele>
        <time>2014-07-27T12:08:10Z</time>
      </trkpt>
      <trkpt lat="47.52188" lon="3.65509">
        <ele>252.09</ele>
        <time>2014-07-27T12:08:22Z</time>
      </trkpt>
      <trkpt lat="47.52173" lon="3.65499">
        <ele>250.94</ele>
        <time>2014-07-27T12:08:35Z</time>
      </trkpt>
      <trkpt lat="47.52171" lon="3.65498">
        <ele>250.85</ele>
        <time>2014-07-27T12:08:37Z</time>
      </trkpt>
      <trkpt lat="47.52169" lon="3.65497">
        <ele>250.69</ele>
        <time>2014-07-27T12:08:39Z</time>
      </trkpt>
      <trkpt lat="47.52162" lon="3.65492">
        <ele>249.91</ele>
        <time>2014-07-27T12:08:45Z</time>
      </trkpt>
      <trkpt lat="47.52152" lon="3.65481">
        <ele>248.64</ele>
        <time>2014-07-27T12:08:57Z</time>
      </trkpt>
      <trkpt lat="47.5214" lon="3.65477">
        <ele>248.21</ele>
        <time>2014-07-27T12:09:05Z</time>
      </trkpt>
      <trkpt lat="47.52131" lon="3.65473">
        <ele>247.45</ele>
        <time>2014-07-27T12:09:12Z</time>
      </trkpt>
      <trkpt lat="47.52123" lon="3.65473">
        <ele>246.74</ele>
        <time>2014-07-27T12:09:19Z</time>
      </trkpt>
      <trkpt lat="47.52119" lon="3.6547">
        <ele>246.24</ele>
        <time>2014-07-27T12:09:27Z</time>
      </trkpt>
      <trkpt lat="47.52127" lon="3.65378">
        <ele>245.33</ele>
        <time>2014-07-27T12:12:35Z</time>
      </trkpt>
      <trkpt lat="47.52137" lon="3.65347">
        <ele>244.82</ele>
        <time>2014-07-27T12:12:56Z</time>
      </trkpt>
      <trkpt lat="47.52138" lon="3.65339">
        <ele>244.26</ele>
        <time>2014-07-27T12:13:01Z</time>
      </trkpt>
      <trkpt lat="47.5215" lon="3.65309">
        <ele>243.32</ele>
        <time>2014-07-27T12:13:23Z</time>
      </trkpt>
      <trkpt lat="47.52154" lon="3.653">
        <ele>243.05</ele>
        <time>2014-07-27T12:13:30Z</time>
      </trkpt>
      <trkpt lat="47.52158" lon="3.65285">
        <ele>242.44</ele>
        <time>2014-07-27T12:13:42Z</time>
      </trkpt>
      <trkpt lat="47.5216" lon="3.65283">
        <ele>242.17</ele>
        <time>2014-07-27T12:13:49Z</time>
      </trkpt>
      <trkpt lat="47.52181" lon="3.6525">
        <ele>240.67</ele>
        <time>2014-07-27T12:14:21Z</time>
      </trkpt>
      <trkpt lat="47.52182" lon="3.65248">
        <ele>240.63</ele>
        <time>2014-07-27T12:14:22Z</time>
      </trkpt>
      <trkpt lat="47.52186" lon="3.65237">
        <ele>240.47</ele>
        <time>2014-07-27T12:14:28Z</time>
      </trkpt>
      <trkpt lat="47.52193" lon="3.65213">
        <ele>239.96</ele>
        <time>2014-07-27T12:14:42Z</time>
      </trkpt>
      <trkpt lat="47.52203" lon="3.652">
        <ele>239.64</ele>
        <time>2014-07-27T12:14:52Z</time>
      </trkpt>
      <trkpt lat="47.52208" lon="3.65189">
        <ele>239.46</ele>
        <time>2014-07-27T12:14:59Z</time>
      </trkpt>
      <trkpt lat="47.52221" lon="3.65165">
        <ele>238.72</ele>
        <time>2014-07-27T12:15:17Z</time>
      </trkpt>
      <trkpt lat="47.52224" lon="3.65159">
        <ele>238.55</ele>
        <time>2014-07-27T12:15:20Z</time>
      </trkpt>
      <trkpt lat="47.52227" lon="3.65156">
        <ele>238.34</ele>
        <time>2014-07-27T12:15:24Z</time>
      </trkpt>
      <trkpt lat="47.52235" lon="3.65136">
        <ele>237.92</ele>
        <time>2014-07-27T12:15:36Z</time>
      </trkpt>
      <trkpt lat="47.52236" lon="3.65135">
        <ele>237.9</ele>
        <time>2014-07-27T12:15:37Z</time>
      </trkpt>
      <trkpt lat="47.52236" lon="3.65128">
        <ele>237.85</ele>
        <time>2014-07-27T12:15:40Z</time>
      </trkpt>
      <trkpt lat="47.52245" lon="3.6511">
        <ele>237.33</ele>
        <time>2014-07-27T12:15:51Z</time>
      </trkpt>
      <trkpt lat="47.52251" lon="3.65094">
        <ele>236.71</ele>
        <time>2014-07-27T12:16:00Z</time>
      </trkpt>
      <trkpt lat="47.52256" lon="3.65085">
        <ele>236.34</ele>
        <time>2014-07-27T12:16:06Z</time>
      </trkpt>
      <trkpt lat="47.52256" lon="3.65084">
        <ele>236.29</ele>
        <time>2014-07-27T12:16:07Z</time>
      </trkpt>
      <trkpt lat="47.52257" lon="3.65083">
        <ele>236.24</ele>
        <time>2014-07-27T12:16:08Z</time>
      </trkpt>
      <trkpt lat="47.52267" lon="3.65064">
        <ele>235.65</ele>
        <time>2014-07-27T12:16:18Z</time>
      </trkpt>
      <trkpt lat="47.52268" lon="3.6506">
        <ele>235.35</ele>
        <time>2014-07-27T12:16:21Z</time>
      </trkpt>
      <trkpt lat="47.52268" lon="3.65057">
        <ele>235.27</ele>
        <time>2014-07-27T12:16:22Z</time>
      </trkpt>
      <trkpt lat="47.52268" lon="3.65057">
        <ele>235.08</ele>
        <time>2014-07-27T12:16:23Z</time>
      </trkpt>
      <trkpt lat="47.52273" lon="3.65044">
        <ele>234.28</ele>
        <time>2014-07-27T12:16:33Z</time>
      </trkpt>
      <trkpt lat="47.52277" lon="3.65039">
        <ele>233.9</ele>
        <time>2014-07-27T12:16:37Z</time>
      </trkpt>
      <trkpt lat="47.52277" lon="3.65036">
        <ele>233.81</ele>
        <time>2014-07-27T12:16:38Z</time>
      </trkpt>
      <trkpt lat="47.52278" lon="3.65034">
        <ele>233.72</ele>
        <time>2014-07-27T12:16:39Z</time>
      </trkpt>
      <trkpt lat="47.52279" lon="3.65032">
        <ele>233.64</ele>
        <time>2014-07-27T12:16:40Z</time>
      </trkpt>
      <trkpt lat="47.52279" lon="3.6503">
        <ele>233.56</ele>
        <time>2014-07-27T12:16:41Z</time>
      </trkpt>
      <trkpt lat="47.52283" lon="3.65021">
        <ele>233.03</ele>
        <time>2014-07-27T12:16:49Z</time>
      </trkpt>
      <trkpt lat="47.52284" lon="3.6502">
        <ele>232.98</ele>
        <time>2014-07-27T12:16:50Z</time>
      </trkpt>
      <trkpt lat="47.52284" lon="3.65018">
        <ele>232.92</ele>
        <time>2014-07-27T12:16:51Z</time>
      </trkpt>
      <trkpt lat="47.52285" lon="3.65017">
        <ele>232.83</ele>
        <time>2014-07-27T12:16:52Z</time>
      </trkpt>
      <trkpt lat="47.52286" lon="3.65015">
        <ele>232.74</ele>
        <time>2014-07-27T12:16:53Z</time>
      </trkpt>
      <trkpt lat="47.52286" lon="3.65014">
        <ele>232.64</ele>
        <time>2014-07-27T12:16:54Z</time>
      </trkpt>
      <trkpt lat="47.52289" lon="3.65009">
        <ele>232.25</ele>
        <time>2014-07-27T12:16:57Z</time>
      </trkpt>
      <trkpt lat="47.5229" lon="3.65008">
        <ele>232.16</ele>
        <time>2014-07-27T12:16:58Z</time>
      </trkpt>
      <trkpt lat="47.52292" lon="3.65003">
        <ele>231.74</ele>
        <time>2014-07-27T12:17:02Z</time>
      </trkpt>
      <trkpt lat="47.52294" lon="3.64998">
        <ele>231.34</ele>
        <time>2014-07-27T12:17:06Z</time>
      </trkpt>
      <trkpt lat="47.52295" lon="3.64989">
        <ele>230.95</ele>
        <time>2014-07-27T12:17:11Z</time>
      </trkpt>
      <trkpt lat="47.52296" lon="3.64986">
        <ele>230.66</ele>
        <time>2014-07-27T12:17:13Z</time>
      </trkpt>
      <trkpt lat="47.52296" lon="3.64984">
        <ele>230.58</ele>
        <time>2014-07-27T12:17:14Z</time>
      </trkpt>
      <trkpt lat="47.52297" lon="3.64981">
        <ele>230.52</ele>
        <time>2014-07-27T12:17:15Z</time>
      </trkpt>
      <trkpt lat="47.52296" lon="3.64979">
        <ele>230.46</ele>
        <time>2014-07-27T12:17:16Z</time>
      </trkpt>
      <trkpt lat="47.52296" lon="3.64969">
        <ele>230.03</ele>
        <time>2014-07-27T12:17:22Z</time>
      </trkpt>
      <trkpt lat="47.52302" lon="3.64933">
        <ele>228.63</ele>
        <time>2014-07-27T12:19:24Z</time>
      </trkpt>
      <trkpt lat="47.52302" lon="3.6493">
        <ele>228.49</ele>
        <time>2014-07-27T12:19:26Z</time>
      </trkpt>
      <trkpt lat="47.52308" lon="3.64909">
        <ele>227.67</ele>
        <time>2014-07-27T12:19:42Z</time>
      </trkpt>
      <trkpt lat="47.52311" lon="3.6489">
        <ele>226.69</ele>
        <time>2014-07-27T12:19:56Z</time>
      </trkpt>
      <trkpt lat="47.52315" lon="3.64866">
        <ele>225.65</ele>
        <time>2014-07-27T12:20:09Z</time>
      </trkpt>
      <trkpt lat="47.52316" lon="3.64842">
        <ele>224.48</ele>
        <time>2014-07-27T12:20:23Z</time>
      </trkpt>
      <trkpt lat="47.52318" lon="3.64827">
        <ele>223.92</ele>
        <time>2014-07-27T12:20:32Z</time>
      </trkpt>
      <trkpt lat="47.52319" lon="3.64815">
        <ele>223.26</ele>
        <time>2014-07-27T12:20:39Z</time>
      </trkpt>
      <trkpt lat="47.52319" lon="3.64814">
        <ele>223.18</ele>
        <time>2014-07-27T12:20:40Z</time>
      </trkpt>
      <trkpt lat="47.52319" lon="3.64812">
        <ele>223.11</ele>
        <time>2014-07-27T12:20:41Z</time>
      </trkpt>
      <trkpt lat="47.5232" lon="3.64811">
        <ele>223.04</ele>
        <time>2014-07-27T12:20:42Z</time>
      </trkpt>
      <trkpt lat="47.5232" lon="3.64809">
        <ele>222.97</ele>
        <time>2014-07-27T12:20:43Z</time>
      </trkpt>
      <trkpt lat="47.5232" lon="3.64807">
        <ele>222.9</ele>
        <time>2014-07-27T12:20:44Z</time>
      </trkpt>
      <trkpt lat="47.5232" lon="3.64805">
        <ele>222.81</ele>
        <time>2014-07-27T12:20:45Z</time>
      </trkpt>
      <trkpt lat="47.52321" lon="3.64784">
        <ele>221.98</ele>
        <time>2014-07-27T12:20:57Z</time>
      </trkpt>
      <trkpt lat="47.52321" lon="3.64774">
        <ele>221.4</ele>
        <time>2014-07-27T12:21:03Z</time>
      </trkpt>
      <trkpt lat="47.52322" lon="3.64771">
        <ele>221.23</ele>
        <time>2014-07-27T12:21:05Z</time>
      </trkpt>
      <trkpt lat="47.52322" lon="3.6477">
        <ele>221.13</ele>
        <time>2014-07-27T12:21:06Z</time>
      </trkpt>
      <trkpt lat="47.52323" lon="3.64768">
        <ele>221.03</ele>
        <time>2014-07-27T12:21:07Z</time>
      </trkpt>
      <trkpt lat="47.52324" lon="3.64766">
        <ele>220.93</ele>
        <time>2014-07-27T12:21:08Z</time>
      </trkpt>
      <trkpt lat="47.52324" lon="3.64764">
        <ele>220.83</ele>
        <time>2014-07-27T12:21:09Z</time>
      </trkpt>
      <trkpt lat="47.52328" lon="3.64753">
        <ele>220.02</ele>
        <time>2014-07-27T12:21:18Z</time>
      </trkpt>
      <trkpt lat="47.52328" lon="3.64752">
        <ele>219.97</ele>
        <time>2014-07-27T12:21:19Z</time>
      </trkpt>
      <trkpt lat="47.52333" lon="3.64732">
        <ele>218.97</ele>
        <time>2014-07-27T12:21:31Z</time>
      </trkpt>
      <trkpt lat="47.52335" lon="3.64725">
        <ele>218.59</ele>
        <time>2014-07-27T12:21:35Z</time>
      </trkpt>
      <trkpt lat="47.52335" lon="3.64724">
        <ele>218.51</ele>
        <time>2014-07-27T12:21:36Z</time>
      </trkpt>
      <trkpt lat="47.52337" lon="3.64714">
        <ele>217.86</ele>
        <time>2014-07-27T12:21:42Z</time>
      </trkpt>
      <trkpt lat="47.52338" lon="3.64712">
        <ele>217.77</ele>
        <time>2014-07-27T12:21:43Z</time>
      </trkpt>
      <trkpt lat="47.52338" lon="3.6471">
        <ele>217.7</ele>
        <time>2014-07-27T12:21:44Z</time>
      </trkpt>
      <trkpt lat="47.52338" lon="3.64709">
        <ele>217.62</ele>
        <time>2014-07-27T12:21:45Z</time>
      </trkpt>
      <trkpt lat="47.52339" lon="3.64707">
        <ele>217.57</ele>
        <time>2014-07-27T12:21:46Z</time>
      </trkpt>
      <trkpt lat="47.5234" lon="3.64706">
        <ele>217.5</ele>
        <time>2014-07-27T12:21:47Z</time>
      </trkpt>
      <trkpt lat="47.52341" lon="3.64705">
        <ele>217.43</ele>
        <time>2014-07-27T12:21:48Z</time>
      </trkpt>
      <trkpt lat="47.52342" lon="3.647">
        <ele>217.15</ele>
        <time>2014-07-27T12:21:51Z</time>
      </trkpt>
      <trkpt lat="47.52343" lon="3.64698">
        <ele>217.09</ele>
        <time>2014-07-27T12:21:52Z</time>
      </trkpt>
      <trkpt lat="47.52344" lon="3.64697">
        <ele>217.03</ele>
        <time>2014-07-27T12:21:53Z</time>
      </trkpt>
      <trkpt lat="47.52345" lon="3.64695">
        <ele>216.98</ele>
        <time>2014-07-27T12:21:54Z</time>
      </trkpt>
      <trkpt lat="47.52345" lon="3.64693">
        <ele>216.92</ele>
        <time>2014-07-27T12:21:55Z</time>
      </trkpt>
      <trkpt lat="47.52348" lon="3.64683">
        <ele>216.64</ele>
        <time>2014-07-27T12:22:02Z</time>
      </trkpt>
      <trkpt lat="47.52347" lon="3.64681">
        <ele>216.61</ele>
        <time>2014-07-27T12:22:03Z</time>
      </trkpt>
      <trkpt lat="47.52348" lon="3.64679">
        <ele>216.55</ele>
        <time>2014-07-27T12:22:04Z</time>
      </trkpt>
      <trkpt lat="47.52352" lon="3.64668">
        <ele>215.94</ele>
        <time>2014-07-27T12:22:12Z</time>
      </trkpt>
      <trkpt lat="47.5236" lon="3.64649">
        <ele>214.7</ele>
        <time>2014-07-27T12:22:27Z</time>
      </trkpt>
      <trkpt lat="47.52362" lon="3.64633">
        <ele>214.16</ele>
        <time>2014-07-27T12:22:39Z</time>
      </trkpt>
      <trkpt lat="47.52362" lon="3.6462">
        <ele>213.83</ele>
        <time>2014-07-27T12:22:44Z</time>
      </trkpt>
      <trkpt lat="47.52371" lon="3.646">
        <ele>212.87</ele>
        <time>2014-07-27T12:22:59Z</time>
      </trkpt>
      <trkpt lat="47.52375" lon="3.64578">
        <ele>211.33</ele>
        <time>2014-07-27T12:23:12Z</time>
      </trkpt>
      <trkpt lat="47.52385" lon="3.6456">
        <ele>210.17</ele>
        <time>2014-07-27T12:23:27Z</time>
      </trkpt>
      <trkpt lat="47.52393" lon="3.64544">
        <ele>208.85</ele>
        <time>2014-07-27T12:23:39Z</time>
      </trkpt>
      <trkpt lat="47.52398" lon="3.64528">
        <ele>207.55</ele>
        <time>2014-07-27T12:23:54Z</time>
      </trkpt>
      <trkpt lat="47.52408" lon="3.64508">
        <ele>205.82</ele>
        <time>2014-07-27T12:24:11Z</time>
      </trkpt>
      <trkpt lat="47.52426" lon="3.6448">
        <ele>203.87</ele>
        <time>2014-07-27T12:24:29Z</time>
      </trkpt>
      <trkpt lat="47.52442" lon="3.64449">
        <ele>201.73</ele>
        <time>2014-07-27T12:24:50Z</time>
      </trkpt>
      <trkpt lat="47.52452" lon="3.64425">
        <ele>200.07</ele>
        <time>2014-07-27T12:25:06Z</time>
      </trkpt>
      <trkpt lat="47.52455" lon="3.6442">
        <ele>199.73</ele>
        <time>2014-07-27T12:25:09Z</time>
      </trkpt>
      <trkpt lat="47.52464" lon="3.64403">
        <ele>198.1</ele>
        <time>2014-07-27T12:25:20Z</time>
      </trkpt>
      <trkpt lat="47.52467" lon="3.64401">
        <ele>197.85</ele>
        <time>2014-07-27T12:25:23Z</time>
      </trkpt>
      <trkpt lat="47.52469" lon="3.64398">
        <ele>197.7</ele>
        <time>2014-07-27T12:25:25Z</time>
      </trkpt>
      <trkpt lat="47.5248" lon="3.64382">
        <ele>196.35</ele>
        <time>2014-07-27T12:25:38Z</time>
      </trkpt>
      <trkpt lat="47.52485" lon="3.64371">
        <ele>195.89</ele>
        <time>2014-07-27T12:25:45Z</time>
      </trkpt>
      <trkpt lat="47.52491" lon="3.64354">
        <ele>194.61</ele>
        <time>2014-07-27T12:25:57Z</time>
      </trkpt>
      <trkpt lat="47.52494" lon="3.6435">
        <ele>194.09</ele>
        <time>2014-07-27T12:26:04Z</time>
      </trkpt>
      <trkpt lat="47.52521" lon="3.64324">
        <ele>192.27</ele>
        <time>2014-07-27T12:26:48Z</time>
      </trkpt>
      <trkpt lat="47.52547" lon="3.6429">
        <ele>190.03</ele>
        <time>2014-07-27T12:27:18Z</time>
      </trkpt>
      <trkpt lat="47.5257" lon="3.64265">
        <ele>187.8</ele>
        <time>2014-07-27T12:27:41Z</time>
      </trkpt>
      <trkpt lat="47.52578" lon="3.64257">
        <ele>187.09</ele>
        <time>2014-07-27T12:27:49Z</time>
      </trkpt>
      <trkpt lat="47.52591" lon="3.64249">
        <ele>185.84</ele>
        <time>2014-07-27T12:28:02Z</time>
      </trkpt>
      <trkpt lat="47.52604" lon="3.64244">
        <ele>184.84</ele>
        <time>2014-07-27T12:28:13Z</time>
      </trkpt>
      <trkpt lat="47.52624" lon="3.64234">
        <ele>182.83</ele>
        <time>2014-07-27T12:28:32Z</time>
      </trkpt>
      <trkpt lat="47.52627" lon="3.64232">
        <ele>182.48</ele>
        <time>2014-07-27T12:28:36Z</time>
      </trkpt>
      <trkpt lat="47.52688" lon="3.64264">
        <ele>189.16</ele>
        <time>2014-07-27T12:30:17Z</time>
      </trkpt>
      <trkpt lat="47.52701" lon="3.64274">
        <ele>190.63</ele>
        <time>2014-07-27T12:30:33Z</time>
      </trkpt>
      <trkpt lat="47.52727" lon="3.64293">
        <ele>193.47</ele>
        <time>2014-07-27T12:30:59Z</time>
      </trkpt>
      <trkpt lat="47.52733" lon="3.64297">
        <ele>193.87</ele>
        <time>2014-07-27T12:31:04Z</time>
      </trkpt>
      <trkpt lat="47.52743" lon="3.64299">
        <ele>194.35</ele>
        <time>2014-07-27T12:31:12Z</time>
      </trkpt>
      <trkpt lat="47.52748" lon="3.64299">
        <ele>194.68</ele>
        <time>2014-07-27T12:31:17Z</time>
      </trkpt>
      <trkpt lat="47.52763" lon="3.64294">
        <ele>195.42</ele>
        <time>2014-07-27T12:31:30Z</time>
      </trkpt>
      <trkpt lat="47.5277" lon="3.64295">
        <ele>195.64</ele>
        <time>2014-07-27T12:31:36Z</time>
      </trkpt>
      <trkpt lat="47.52778" lon="3.64299">
        <ele>195.73</ele>
        <time>2014-07-27T12:31:48Z</time>
      </trkpt>
      <trkpt lat="47.52806" lon="3.64352">
        <ele>196.35</ele>
        <time>2014-07-27T12:34:41Z</time>
      </trkpt>
      <trkpt lat="47.52815" lon="3.64372">
        <ele>196.41</ele>
        <time>2014-07-27T12:34:53Z</time>
      </trkpt>
      <trkpt lat="47.5283" lon="3.64394">
        <ele>196.53</ele>
        <time>2014-07-27T12:35:08Z</time>
      </trkpt>
      <trkpt lat="47.52841" lon="3.64416">
        <ele>196.71</ele>
        <time>2014-07-27T12:35:23Z</time>
      </trkpt>
      <trkpt lat="47.52846" lon="3.64427">
        <ele>196.71</ele>
        <time>2014-07-27T12:35:30Z</time>
      </trkpt>
      <trkpt lat="47.52849" lon="3.64432">
        <ele>197.1</ele>
        <time>2014-07-27T12:35:37Z</time>
      </trkpt>
      <trkpt lat="47.52858" lon="3.64448">
        <ele>197.2</ele>
        <time>2014-07-27T12:35:49Z</time>
      </trkpt>
      <trkpt lat="47.52869" lon="3.64474">
        <ele>197.04</ele>
        <time>2014-07-27T12:36:05Z</time>
      </trkpt>
      <trkpt lat="47.5287" lon="3.64477">
        <ele>197.01</ele>
        <time>2014-07-27T12:36:07Z</time>
      </trkpt>
      <trkpt lat="47.52873" lon="3.64497">
        <ele>197.09</ele>
        <time>2014-07-27T12:36:18Z</time>
      </trkpt>
      <trkpt lat="47.52879" lon="3.64511">
        <ele>197.42</ele>
        <time>2014-07-27T12:36:30Z</time>
      </trkpt>
      <trkpt lat="47.52892" lon="3.64526">
        <ele>197.28</ele>
        <time>2014-07-27T12:36:43Z</time>
      </trkpt>
      <trkpt lat="47.529" lon="3.64533">
        <ele>197.24</ele>
        <time>2014-07-27T12:36:50Z</time>
      </trkpt>
      <trkpt lat="47.52913" lon="3.6455">
        <ele>197.54</ele>
        <time>2014-07-27T12:37:05Z</time>
      </trkpt>
      <trkpt lat="47.52932" lon="3.64568">
        <ele>197.23</ele>
        <time>2014-07-27T12:37:21Z</time>
      </trkpt>
      <trkpt lat="47.52946" lon="3.64584">
        <ele>196.94</ele>
        <time>2014-07-27T12:37:36Z</time>
      </trkpt>
      <trkpt lat="47.52964" lon="3.64587">
        <ele>195.98</ele>
        <time>2014-07-27T12:37:51Z</time>
      </trkpt>
      <trkpt lat="47.52974" lon="3.64572">
        <ele>194.92</ele>
        <time>2014-07-27T12:38:05Z</time>
      </trkpt>
      <trkpt lat="47.52989" lon="3.64554">
        <ele>193.29</ele>
        <time>2014-07-27T12:38:22Z</time>
      </trkpt>
      <trkpt lat="47.53001" lon="3.64537">
        <ele>191.91</ele>
        <time>2014-07-27T12:38:35Z</time>
      </trkpt>
      <trkpt lat="47.53012" lon="3.64527">
        <ele>191.12</ele>
        <time>2014-07-27T12:38:45Z</time>
      </trkpt>
      <trkpt lat="47.53017" lon="3.6452">
        <ele>190.53</ele>
        <time>2014-07-27T12:38:50Z</time>
      </trkpt>
      <trkpt lat="47.53025" lon="3.645">
        <ele>189.31</ele>
        <time>2014-07-27T12:39:03Z</time>
      </trkpt>
      <trkpt lat="47.53034" lon="3.64485">
        <ele>188.12</ele>
        <time>2014-07-27T12:39:14Z</time>
      </trkpt>
      <trkpt lat="47.53037" lon="3.64482">
        <ele>187.74</ele>
        <time>2014-07-27T12:39:20Z</time>
      </trkpt>
      <trkpt lat="47.53054" lon="3.64402">
        <ele>182.06</ele>
        <time>2014-07-27T12:40:28Z</time>
      </trkpt>
      <trkpt lat="47.53061" lon="3.64385">
        <ele>179.03</ele>
        <time>2014-07-27T12:40:42Z</time>
      </trkpt>
      <trkpt lat="47.53067" lon="3.64371">
        <ele>176.95</ele>
        <time>2014-07-27T12:40:55Z</time>
      </trkpt>
      <trkpt lat="47.53067" lon="3.64363">
        <ele>175.92</ele>
        <time>2014-07-27T12:41:07Z</time>
      </trkpt>
      <trkpt lat="47.53081" lon="3.64308">
        <ele>170.42</ele>
        <time>2014-07-27T12:43:48Z</time>
      </trkpt>
      <trkpt lat="47.53076" lon="3.64278">
        <ele>167.31</ele>
        <time>2014-07-27T12:44:07Z</time>
      </trkpt>
      <trkpt lat="47.53073" lon="3.64249">
        <ele>164.47</ele>
        <time>2014-07-27T12:44:29Z</time>
      </trkpt>
      <trkpt lat="47.5304" lon="3.64207">
        <ele>161.6</ele>
        <time>2014-07-27T12:45:22Z</time>
      </trkpt>
      <trkpt lat="47.5303" lon="3.64173">
        <ele>160.62</ele>
        <time>2014-07-27T12:45:41Z</time>
      </trkpt>
      <trkpt lat="47.53031" lon="3.64167">
        <ele>160.53</ele>
        <time>2014-07-27T12:45:43Z</time>
      </trkpt>
      <trkpt lat="47.53031" lon="3.64165">
        <ele>160.48</ele>
        <time>2014-07-27T12:45:44Z</time>
      </trkpt>
      <trkpt lat="47.53029" lon="3.64164">
        <ele>160.44</ele>
        <time>2014-07-27T12:45:45Z</time>
      </trkpt>
      <trkpt lat="47.5302" lon="3.64145">
        <ele>159.69</ele>
        <time>2014-07-27T12:45:57Z</time>
      </trkpt>
      <trkpt lat="47.53019" lon="3.64144">
        <ele>159.64</ele>
        <time>2014-07-27T12:45:58Z</time>
      </trkpt>
      <trkpt lat="47.53008" lon="3.64114">
        <ele>158.97</ele>
        <time>2014-07-27T12:46:14Z</time>
      </trkpt>
      <trkpt lat="47.53007" lon="3.64097">
        <ele>158.36</ele>
        <time>2014-07-27T12:46:24Z</time>
      </trkpt>
      <trkpt lat="47.53006" lon="3.64075">
        <ele>157.74</ele>
        <time>2014-07-27T12:46:37Z</time>
      </trkpt>
      <trkpt lat="47.53008" lon="3.64045">
        <ele>156.54</ele>
        <time>2014-07-27T12:46:55Z</time>
      </trkpt>
      <trkpt lat="47.53007" lon="3.64023">
        <ele>155.76</ele>
        <time>2014-07-27T12:47:10Z</time>
      </trkpt>
      <trkpt lat="47.53007" lon="3.64013">
        <ele>155.56</ele>
        <time>2014-07-27T12:47:16Z</time>
      </trkpt>
      <trkpt lat="47.53007" lon="3.64012">
        <ele>155.49</ele>
        <time>2014-07-27T12:47:17Z</time>
      </trkpt>
      <trkpt lat="47.53007" lon="3.64011">
        <ele>155.43</ele>
        <time>2014-07-27T12:47:18Z</time>
      </trkpt>
      <trkpt lat="47.53007" lon="3.64009">
        <ele>155.37</ele>
        <time>2014-07-27T12:47:19Z</time>
      </trkpt>
      <trkpt lat="47.53007" lon="3.64008">
        <ele>155.31</ele>
        <time>2014-07-27T12:47:20Z</time>
      </trkpt>
      <trkpt lat="47.53009" lon="3.63977">
        <ele>154.58</ele>
        <time>2014-07-27T12:47:37Z</time>
      </trkpt>
      <trkpt lat="47.5301" lon="3.63962">
        <ele>154.07</ele>
        <time>2014-07-27T12:47:49Z</time>
      </trkpt>
      <trkpt lat="47.53011" lon="3.63919">
        <ele>153.03</ele>
        <time>2014-07-27T12:48:16Z</time>
      </trkpt>
      <trkpt lat="47.53016" lon="3.63894">
        <ele>152.44</ele>
        <time>2014-07-27T12:48:31Z</time>
      </trkpt>
      <trkpt lat="47.53018" lon="3.6389">
        <ele>152.38</ele>
        <time>2014-07-27T12:48:33Z</time>
      </trkpt>
      <trkpt lat="47.53018" lon="3.63888">
        <ele>152.37</ele>
        <time>2014-07-27T12:48:34Z</time>
      </trkpt>
      <trkpt lat="47.53018" lon="3.63884">
        <ele>152.35</ele>
        <time>2014-07-27T12:48:36Z</time>
      </trkpt>
      <trkpt lat="47.53019" lon="3.63882">
        <ele>152.33</ele>
        <time>2014-07-27T12:48:37Z</time>
      </trkpt>
      <trkpt lat="47.53019" lon="3.6388">
        <ele>152.29</ele>
        <time>2014-07-27T12:48:38Z</time>
      </trkpt>
      <trkpt lat="47.53025" lon="3.63857">
        <ele>151.4</ele>
        <time>2014-07-27T12:48:51Z</time>
      </trkpt>
      <trkpt lat="47.53029" lon="3.6384">
        <ele>150.91</ele>
        <time>2014-07-27T12:49:02Z</time>
      </trkpt>
      <trkpt lat="47.53031" lon="3.63827">
        <ele>150.41</ele>
        <time>2014-07-27T12:49:13Z</time>
      </trkpt>
      <trkpt lat="47.53041" lon="3.63811">
        <ele>149.83</ele>
        <time>2014-07-27T12:49:26Z</time>
      </trkpt>
      <trkpt lat="47.53041" lon="3.63808">
        <ele>149.77</ele>
        <time>2014-07-27T12:49:27Z</time>
      </trkpt>
      <trkpt lat="47.53041" lon="3.63806">
        <ele>149.69</ele>
        <time>2014-07-27T12:49:28Z</time>
      </trkpt>
      <trkpt lat="47.53042" lon="3.63804">
        <ele>149.65</ele>
        <time>2014-07-27T12:49:29Z</time>
      </trkpt>
      <trkpt lat="47.53042" lon="3.63801">
        <ele>149.58</ele>
        <time>2014-07-27T12:49:30Z</time>
      </trkpt>
      <trkpt lat="47.5305" lon="3.63773">
        <ele>148.68</ele>
        <time>2014-07-27T12:49:44Z</time>
      </trkpt>
      <trkpt lat="47.5305" lon="3.63772">
        <ele>148.62</ele>
        <time>2014-07-27T12:49:45Z</time>
      </trkpt>
      <trkpt lat="47.53051" lon="3.6377">
        <ele>148.58</ele>
        <time>2014-07-27T12:49:46Z</time>
      </trkpt>
      <trkpt lat="47.53051" lon="3.63767">
        <ele>148.52</ele>
        <time>2014-07-27T12:49:47Z</time>
      </trkpt>
      <trkpt lat="47.53052" lon="3.63766">
        <ele>148.46</ele>
        <time>2014-07-27T12:49:48Z</time>
      </trkpt>
      <trkpt lat="47.53052" lon="3.63764">
        <ele>148.4</ele>
        <time>2014-07-27T12:49:49Z</time>
      </trkpt>
      <trkpt lat="47.53052" lon="3.63762">
        <ele>148.33</ele>
        <time>2014-07-27T12:49:50Z</time>
      </trkpt>
      <trkpt lat="47.53053" lon="3.6376">
        <ele>148.29</ele>
        <time>2014-07-27T12:49:51Z</time>
      </trkpt>
      <trkpt lat="47.53054" lon="3.63759">
        <ele>148.24</ele>
        <time>2014-07-27T12:49:52Z</time>
      </trkpt>
      <trkpt lat="47.53059" lon="3.63748">
        <ele>147.77</ele>
        <time>2014-07-27T12:49:59Z</time>
      </trkpt>
      <trkpt lat="47.53059" lon="3.63745">
        <ele>147.69</ele>
        <time>2014-07-27T12:50:00Z</time>
      </trkpt>
      <trkpt lat="47.5306" lon="3.63743">
        <ele>147.55</ele>
        <time>2014-07-27T12:50:01Z</time>
      </trkpt>
      <trkpt lat="47.53062" lon="3.63738">
        <ele>147.39</ele>
        <time>2014-07-27T12:50:04Z</time>
      </trkpt>
      <trkpt lat="47.53065" lon="3.63732">
        <ele>147.23</ele>
        <time>2014-07-27T12:50:08Z</time>
      </trkpt>
      <trkpt lat="47.53066" lon="3.6373">
        <ele>147.21</ele>
        <time>2014-07-27T12:50:09Z</time>
      </trkpt>
      <trkpt lat="47.53066" lon="3.63728">
        <ele>147.18</ele>
        <time>2014-07-27T12:50:10Z</time>
      </trkpt>
      <trkpt lat="47.53068" lon="3.63725">
        <ele>147.06</ele>
        <time>2014-07-27T12:50:12Z</time>
      </trkpt>
      <trkpt lat="47.53068" lon="3.63724">
        <ele>146.96</ele>
        <time>2014-07-27T12:50:13Z</time>
      </trkpt>
      <trkpt lat="47.53069" lon="3.63722">
        <ele>146.86</ele>
        <time>2014-07-27T12:50:14Z</time>
      </trkpt>
      <trkpt lat="47.53069" lon="3.6372">
        <ele>146.77</ele>
        <time>2014-07-27T12:50:15Z</time>
      </trkpt>
      <trkpt lat="47.5307" lon="3.63715">
        <ele>146.47</ele>
        <time>2014-07-27T12:50:18Z</time>
      </trkpt>
      <trkpt lat="47.53079" lon="3.63701">
        <ele>145.71</ele>
        <time>2014-07-27T12:50:28Z</time>
      </trkpt>
      <trkpt lat="47.53081" lon="3.63697">
        <ele>145.43</ele>
        <time>2014-07-27T12:50:31Z</time>
      </trkpt>
      <trkpt lat="47.53081" lon="3.63695">
        <ele>145.31</ele>
        <time>2014-07-27T12:50:32Z</time>
      </trkpt>
      <trkpt lat="47.53082" lon="3.63693">
        <ele>145.2</ele>
        <time>2014-07-27T12:50:33Z</time>
      </trkpt>
      <trkpt lat="47.53083" lon="3.63689">
        <ele>145.02</ele>
        <time>2014-07-27T12:50:35Z</time>
      </trkpt>
      <trkpt lat="47.53083" lon="3.63688">
        <ele>144.95</ele>
        <time>2014-07-27T12:50:36Z</time>
      </trkpt>
      <trkpt lat="47.53084" lon="3.63687">
        <ele>144.9</ele>
        <time>2014-07-27T12:50:37Z</time>
      </trkpt>
      <trkpt lat="47.53085" lon="3.63686">
        <ele>144.84</ele>
        <time>2014-07-27T12:50:38Z</time>
      </trkpt>
      <trkpt lat="47.53086" lon="3.63685">
        <ele>144.79</ele>
        <time>2014-07-27T12:50:39Z</time>
      </trkpt>
      <trkpt lat="47.53094" lon="3.63664">
        <ele>143.83</ele>
        <time>2014-07-27T12:50:52Z</time>
      </trkpt>
      <trkpt lat="47.53105" lon="3.63635">
        <ele>142.26</ele>
        <time>2014-07-27T12:51:08Z</time>
      </trkpt>
      <trkpt lat="47.5311" lon="3.63616">
        <ele>140.82</ele>
        <time>2014-07-27T12:51:21Z</time>
      </trkpt>
      <trkpt lat="47.5311" lon="3.63612">
        <ele>140.32</ele>
        <time>2014-07-27T12:51:29Z</time>
      </trkpt>
      <trkpt lat="47.53123" lon="3.6359">
        <ele>139.76</ele>
        <time>2014-07-27T12:53:35Z</time>
      </trkpt>
      <trkpt lat="47.53129" lon="3.63564">
        <ele>138.84</ele>
        <time>2014-07-27T12:53:52Z</time>
      </trkpt>
      <trkpt lat="47.5313" lon="3.63564">
        <ele>138.62</ele>
        <time>2014-07-27T12:53:56Z</time>
      </trkpt>
      <trkpt lat="47.53143" lon="3.63494">
        <ele>137.03</ele>
        <time>2014-07-27T12:55:35Z</time>
      </trkpt>
      <trkpt lat="47.53144" lon="3.63493">
        <ele>136.92</ele>
        <time>2014-07-27T12:55:41Z</time>
      </trkpt>
      <trkpt lat="47.53069" lon="3.6343">
        <ele>136.83</ele>
        <time>2014-07-27T13:01:21Z</time>
      </trkpt>
      <trkpt lat="47.53057" lon="3.63424">
        <ele>137.07</ele>
        <time>2014-07-27T13:01:37Z</time>
      </trkpt>
      <trkpt lat="47.53052" lon="3.63421">
        <ele>137.03</ele>
        <time>2014-07-27T13:01:46Z</time>
      </trkpt>
      <trkpt lat="47.53067" lon="3.63409">
        <ele>137.16</ele>
        <time>2014-07-27T13:02:33Z</time>
      </trkpt>
      <trkpt lat="47.53083" lon="3.63401">
        <ele>136.79</ele>
        <time>2014-07-27T13:02:48Z</time>
      </trkpt>
      <trkpt lat="47.5309" lon="3.63401">
        <ele>136.9</ele>
        <time>2014-07-27T13:02:53Z</time>
      </trkpt>
      <trkpt lat="47.53091" lon="3.63399">
        <ele>136.9</ele>
        <time>2014-07-27T13:02:54Z</time>
      </trkpt>
      <trkpt lat="47.53097" lon="3.63388">
        <ele>136.58</ele>
        <time>2014-07-27T13:03:05Z</time>
      </trkpt>
      <trkpt lat="47.53093" lon="3.63369">
        <ele>136.54</ele>
        <time>2014-07-27T13:03:19Z</time>
      </trkpt>
      <trkpt lat="47.53091" lon="3.63361">
        <ele>136.62</ele>
        <time>2014-07-27T13:03:28Z</time>
      </trkpt>
      <trkpt lat="47.53085" lon="3.63356">
        <ele>137.67</ele>
        <time>2014-07-27T13:04:24Z</time>
      </trkpt>
      <trkpt lat="47.53089" lon="3.63353">
        <ele>137.52</ele>
        <time>2014-07-27T13:04:32Z</time>
      </trkpt>
      <trkpt lat="47.5316" lon="3.63225">
        <ele>168.64</ele>
        <time>2014-07-27T13:10:07Z</time>
      </trkpt>
      <trkpt lat="47.53142" lon="3.63208">
        <ele>170.89</ele>
        <time>2014-07-27T13:10:32Z</time>
      </trkpt>
      <trkpt lat="47.5314" lon="3.63222">
        <ele>169.65</ele>
        <time>2014-07-27T13:10:52Z</time>
      </trkpt>
      <trkpt lat="47.53147" lon="3.63223">
        <ele>169.57</ele>
        <time>2014-07-27T13:11:03Z</time>
      </trkpt>
      <trkpt lat="47.5315" lon="3.63196">
        <ele>172.15</ele>
        <time>2014-07-27T13:25:17Z</time>
      </trkpt>
      <trkpt lat="47.5316" lon="3.63209">
        <ele>171.27</ele>
        <time>2014-07-27T13:25:26Z</time>
      </trkpt>
      <trkpt lat="47.53165" lon="3.63217">
        <ele>170.86</ele>
        <time>2014-07-27T13:25:31Z</time>
      </trkpt>
      <trkpt lat="47.53168" lon="3.63232">
        <ele>170.03</ele>
        <time>2014-07-27T13:25:38Z</time>
      </trkpt>
      <trkpt lat="47.5318" lon="3.63247">
        <ele>168.54</ele>
        <time>2014-07-27T13:25:51Z</time>
      </trkpt>
      <trkpt lat="47.53186" lon="3.63256">
        <ele>167.31</ele>
        <time>2014-07-27T13:26:01Z</time>
      </trkpt>
      <trkpt lat="47.53227" lon="3.63278">
        <ele>162.65</ele>
        <time>2014-07-27T13:26:50Z</time>
      </trkpt>
      <trkpt lat="47.53233" lon="3.63276">
        <ele>161.13</ele>
        <time>2014-07-27T13:27:00Z</time>
      </trkpt>
      <trkpt lat="47.53233" lon="3.63275">
        <ele>161.01</ele>
        <time>2014-07-27T13:27:01Z</time>
      </trkpt>
      <trkpt lat="47.53291" lon="3.63217">
        <ele>133.12</ele>
        <time>2014-07-27T13:30:12Z</time>
      </trkpt>
      <trkpt lat="47.53297" lon="3.63235">
        <ele>133.13</ele>
        <time>2014-07-27T13:30:28Z</time>
      </trkpt>
      <trkpt lat="47.53305" lon="3.63206">
        <ele>132.91</ele>
        <time>2014-07-27T13:31:13Z</time>
      </trkpt>
      <trkpt lat="47.53311" lon="3.6318">
        <ele>132.56</ele>
        <time>2014-07-27T13:31:29Z</time>
      </trkpt>
      <trkpt lat="47.53315" lon="3.63173">
        <ele>132.72</ele>
        <time>2014-07-27T13:31:36Z</time>
      </trkpt>
    </trkseg>
  </trk>
</gpx>